createdAt,value
2022-08-05T00:00:16.451Z,17.31
2022-08-05T00:01:20.309Z,17.32
2022-08-05T00:02:11.294Z,17.31
2022-08-05T00:02:58.493Z,17.29
2022-08-05T00:03:45.284Z,17.28
2022-08-05T00:04:33.051Z,17.31
2022-08-05T00:06:02.912Z,17.31
2022-08-05T00:06:32.836Z,17.29
2022-08-05T00:07:26.901Z,17.31
2022-08-05T00:08:34.624Z,17.32
2022-08-05T00:09:22.113Z,17.24
2022-08-05T00:10:09.252Z,17.25
2022-08-05T00:10:56.719Z,17.24
2022-08-05T00:11:55.706Z,17.22
2022-08-05T00:12:48.510Z,17.23
2022-08-05T00:13:44.229Z,17.17
2022-08-05T00:14:39.832Z,17.15
2022-08-05T00:15:57.525Z,17.11
2022-08-05T00:16:36.354Z,17.09
2022-08-05T00:17:39.019Z,17.11
2022-08-05T00:18:28.978Z,17.08
2022-08-05T00:19:15.761Z,17.07
2022-08-05T00:20:03.250Z,17.05
2022-08-05T00:20:52.850Z,17.06
2022-08-05T00:21:39.710Z,17.04
2022-08-05T00:22:29.580Z,17.03
2022-08-05T00:23:31.054Z,17.03
2022-08-05T00:24:30.686Z,17.03
2022-08-05T00:25:18.179Z,17.03
2022-08-05T00:26:05.629Z,17.07
2022-08-05T00:26:53.339Z,17.09
2022-08-05T00:27:40.670Z,17.07
2022-08-05T00:28:29.955Z,17.13
2022-08-05T00:29:16.880Z,17.12
2022-08-05T00:30:11.417Z,17.12
2022-08-05T00:30:58.440Z,17.14
2022-08-05T00:31:53.610Z,17.14
2022-08-05T00:32:57.550Z,17.13
2022-08-05T00:34:55.331Z,17.16
2022-08-05T00:35:05.161Z,17.14
2022-08-05T00:36:15.000Z,17.13
2022-08-05T00:37:11.754Z,17.17
2022-08-05T00:38:01.422Z,17.14
2022-08-05T00:38:49.749Z,17.16
2022-08-05T00:39:37.179Z,17.17
2022-08-05T00:40:29.466Z,17.13
2022-08-05T00:41:27.919Z,17.06
2022-08-05T00:42:39.879Z,17.04
2022-08-05T00:43:26.943Z,17.05
2022-08-05T00:44:33.559Z,17.02
2022-08-05T00:45:28.276Z,17.02
2022-08-05T00:46:42.769Z,17.07
2022-08-05T00:47:49.204Z,17.06
2022-08-05T00:48:51.184Z,17.06
2022-08-05T00:49:51.290Z,17.10
2022-08-05T00:50:41.385Z,17.11
2022-08-05T00:51:51.532Z,17.06
2022-08-05T00:52:39.211Z,17.07
2022-08-05T00:54:01.350Z,17.05
2022-08-05T00:54:33.199Z,17.01
2022-08-05T00:55:19.989Z,17.02
2022-08-05T00:56:07.745Z,17.02
2022-08-05T00:56:54.780Z,17.00
2022-08-05T00:57:58.158Z,17.02
2022-08-05T00:58:46.047Z,16.97
2022-08-05T00:59:44.281Z,16.92
2022-08-05T01:00:32.225Z,16.88
2022-08-05T01:01:41.980Z,16.88
2022-08-05T01:02:27.350Z,16.87
2022-08-05T01:03:22.558Z,16.84
2022-08-05T01:04:13.593Z,16.83
2022-08-05T01:05:01.223Z,16.82
2022-08-05T01:05:54.847Z,16.81
2022-08-05T01:06:41.859Z,16.80
2022-08-05T01:07:33.523Z,16.81
2022-08-05T01:08:30.292Z,16.80
2022-08-05T01:09:30.346Z,16.78
2022-08-05T01:10:19.319Z,16.76
2022-08-05T01:11:33.350Z,16.78
2022-08-05T01:12:21.821Z,16.80
2022-08-05T01:13:19.504Z,16.77
2022-08-05T01:14:45.940Z,16.77
2022-08-05T01:15:36.834Z,16.69
2022-08-05T01:16:54.981Z,16.71
2022-08-05T01:17:53.727Z,16.71
2022-08-05T01:18:48.186Z,16.70
2022-08-05T01:20:03.048Z,16.67
2022-08-05T01:20:52.458Z,16.66
2022-08-05T01:22:05.400Z,16.71
2022-08-05T01:22:57.201Z,16.70
2022-08-05T01:23:53.293Z,16.70
2022-08-05T01:25:04.646Z,16.73
2022-08-05T01:25:57.079Z,16.81
2022-08-05T01:27:22.123Z,16.81
2022-08-05T01:28:27.490Z,16.81
2022-08-05T01:29:23.083Z,16.78
2022-08-05T01:30:12.402Z,16.74
2022-08-05T01:31:27.060Z,16.76
2022-08-05T01:32:18.557Z,16.77
2022-08-05T01:33:08.706Z,16.75
2022-08-05T01:34:16.018Z,16.74
2022-08-05T01:35:51.240Z,16.73
2022-08-05T01:36:28.088Z,16.68
2022-08-05T01:37:27.629Z,16.67
2022-08-05T01:38:27.412Z,16.68
2022-08-05T01:39:36.178Z,16.62
2022-08-05T01:40:28.989Z,16.62
2022-08-05T01:41:18.175Z,16.61
2022-08-05T01:42:11.462Z,16.60
2022-08-05T01:43:03.591Z,16.57
2022-08-05T01:43:51.409Z,16.59
2022-08-05T01:44:39.459Z,16.57
2022-08-05T01:45:28.391Z,16.59
2022-08-05T01:46:42.044Z,16.60
2022-08-05T01:47:39.476Z,16.60
2022-08-05T01:48:30.548Z,16.61
2022-08-05T01:49:23.709Z,16.62
2022-08-05T01:50:15.983Z,16.61
2022-08-05T01:51:12.509Z,16.59
2022-08-05T01:52:01.666Z,16.59
2022-08-05T01:53:08.048Z,16.60
2022-08-05T01:53:58.111Z,16.64
2022-08-05T01:54:49.539Z,16.67
2022-08-05T01:55:41.359Z,16.64
2022-08-05T01:58:09.367Z,16.64
2022-08-05T01:58:29.306Z,16.62
2022-08-05T01:58:50.277Z,16.67
2022-08-05T01:59:39.290Z,16.64
2022-08-05T02:00:30.337Z,16.58
2022-08-05T02:01:25.309Z,16.54
2022-08-05T02:02:15.955Z,16.54
2022-08-05T02:03:50.124Z,16.55
2022-08-05T02:04:38.459Z,16.56
2022-08-05T02:05:34.294Z,16.53
2022-08-05T02:06:37.892Z,16.51
2022-08-05T02:07:25.569Z,16.47
2022-08-05T02:08:28.961Z,16.43
2022-08-05T02:09:20.448Z,16.43
2022-08-05T02:10:08.101Z,16.41
2022-08-05T02:11:03.590Z,16.41
2022-08-05T02:11:57.299Z,16.39
2022-08-05T02:12:51.165Z,16.38
2022-08-05T02:13:59.090Z,16.40
2022-08-05T02:14:53.498Z,16.39
2022-08-05T02:15:45.929Z,16.40
2022-08-05T02:16:37.599Z,16.38
2022-08-05T02:18:32.053Z,16.34
2022-08-05T02:18:50.979Z,16.31
2022-08-05T02:19:42.706Z,16.30
2022-08-05T02:20:40.824Z,16.29
2022-08-05T02:21:42.891Z,16.30
2022-08-05T02:22:38.638Z,16.28
2022-08-05T02:23:30.500Z,16.29
2022-08-05T02:24:23.728Z,16.27
2022-08-05T02:25:17.969Z,16.26
2022-08-05T02:26:06.860Z,16.25
2022-08-05T02:27:00.348Z,16.25
2022-08-05T02:28:00.120Z,16.26
2022-08-05T02:28:48.150Z,16.27
2022-08-05T02:29:58.897Z,16.28
2022-08-05T02:30:54.177Z,16.28
2022-08-05T02:31:41.829Z,16.23
2022-08-05T02:32:31.960Z,16.20
2022-08-05T02:33:35.727Z,16.24
2022-08-05T02:34:28.036Z,16.20
2022-08-05T02:35:19.122Z,16.15
2022-08-05T02:36:17.092Z,16.10
2022-08-05T02:37:06.208Z,16.10
2022-08-05T02:37:55.799Z,16.07
2022-08-05T02:38:52.968Z,16.04
2022-08-05T02:39:41.497Z,16.01
2022-08-05T02:40:34.619Z,16.01
2022-08-05T02:41:23.187Z,16.01
2022-08-05T02:42:11.178Z,16.03
2022-08-05T02:43:15.337Z,16.01
2022-08-05T02:44:06.790Z,16.04
2022-08-05T02:45:00.639Z,16.01
2022-08-05T02:45:51.491Z,16.00
2022-08-05T02:46:44.048Z,16.02
2022-08-05T02:48:06.555Z,16.01
2022-08-05T02:48:52.779Z,16.02
2022-08-05T02:49:44.698Z,16.05
2022-08-05T02:50:32.210Z,16.01
2022-08-05T02:51:19.550Z,16.01
2022-08-05T02:52:29.475Z,15.97
2022-08-05T02:53:20.918Z,15.98
2022-08-05T02:54:07.951Z,15.96
2022-08-05T02:54:55.430Z,15.93
2022-08-05T02:55:54.454Z,15.94
2022-08-05T02:56:47.559Z,15.93
2022-08-05T02:58:11.718Z,15.92
2022-08-05T02:58:43.918Z,15.95
2022-08-05T02:59:30.894Z,16.01
2022-08-05T03:00:35.579Z,15.97
2022-08-05T03:01:27.074Z,16.02
2022-08-05T03:02:15.479Z,15.98
2022-08-05T03:03:02.482Z,15.96
2022-08-05T03:04:03.277Z,15.97
2022-08-05T03:04:53.320Z,15.98
2022-08-05T03:06:54.658Z,15.97
2022-08-05T03:06:54.728Z,15.94
2022-08-05T03:08:00.316Z,15.91
2022-08-05T03:08:53.659Z,15.90
2022-08-05T03:09:51.636Z,15.92
2022-08-05T03:10:39.125Z,15.93
2022-08-05T03:11:54.739Z,15.95
2022-08-05T03:12:36.720Z,15.97
2022-08-05T03:13:27.559Z,15.95
2022-08-05T03:14:30.367Z,15.95
2022-08-05T03:15:17.488Z,15.95
2022-08-05T03:16:04.282Z,16.00
2022-08-05T03:16:53.416Z,16.03
2022-08-05T03:17:42.047Z,16.07
2022-08-05T03:18:31.688Z,16.06
2022-08-05T03:19:34.413Z,16.04
2022-08-05T03:20:24.567Z,16.03
2022-08-05T03:21:11.740Z,16.02
2022-08-05T03:21:58.560Z,16.03
2022-08-05T03:22:49.809Z,16.02
2022-08-05T03:23:39.109Z,16.03
2022-08-05T03:24:30.121Z,16.04
2022-08-05T03:25:33.617Z,15.99
2022-08-05T03:26:32.307Z,15.97
2022-08-05T03:27:20.943Z,15.98
2022-08-05T03:28:08.854Z,15.97
2022-08-05T03:28:55.879Z,16.00
2022-08-05T03:29:45.087Z,16.01
2022-08-05T03:30:49.702Z,16.01
2022-08-05T03:31:57.294Z,16.06
2022-08-05T03:32:45.487Z,16.08
2022-08-05T03:33:51.096Z,16.04
2022-08-05T03:34:39.970Z,16.04
2022-08-05T03:35:28.178Z,16.06
2022-08-05T03:36:15.669Z,16.03
2022-08-05T03:37:03.229Z,16.04
2022-08-05T03:37:50.068Z,16.02
2022-08-05T03:38:44.419Z,16.00
2022-08-05T03:39:59.358Z,16.01
2022-08-05T03:40:49.248Z,16.01
2022-08-05T03:41:45.153Z,16.01
2022-08-05T03:42:41.796Z,16.04
2022-08-05T03:44:08.368Z,16.05
2022-08-05T03:44:46.011Z,16.09
2022-08-05T03:45:57.234Z,16.13
2022-08-05T03:46:41.249Z,16.18
2022-08-05T03:47:30.590Z,16.17
2022-08-05T03:48:22.782Z,16.16
2022-08-05T03:49:09.611Z,16.17
2022-08-05T03:49:57.640Z,16.17
2022-08-05T03:50:54.061Z,16.13
2022-08-05T03:52:50.307Z,16.12
2022-08-05T03:55:49.977Z,16.26
2022-08-05T03:55:51.093Z,16.13
2022-08-05T03:56:09.850Z,16.25
2022-08-05T03:56:46.477Z,16.34
2022-08-05T03:57:42.544Z,16.34
2022-08-05T03:58:32.090Z,16.35
2022-08-05T03:59:47.120Z,16.34
2022-08-05T04:00:34.390Z,16.35
2022-08-05T04:01:22.552Z,16.41
2022-08-05T04:02:14.864Z,16.27
2022-08-05T04:03:06.337Z,16.28
2022-08-05T04:03:56.960Z,16.32
2022-08-05T04:05:01.880Z,16.36
2022-08-05T04:05:49.150Z,16.32
2022-08-05T04:06:36.159Z,16.33
2022-08-05T04:07:24.933Z,16.40
2022-08-05T04:08:14.634Z,16.48
2022-08-05T04:09:20.454Z,16.54
2022-08-05T04:10:13.560Z,16.54
2022-08-05T04:11:06.139Z,16.56
2022-08-05T04:11:52.920Z,16.59
2022-08-05T04:13:49.322Z,16.61
2022-08-05T04:14:33.558Z,16.52
2022-08-05T04:15:20.502Z,16.63
2022-08-05T04:16:14.328Z,16.58
2022-08-05T04:17:02.866Z,16.65
2022-08-05T04:17:56.624Z,16.68
2022-08-05T04:18:54.198Z,16.71
2022-08-05T04:19:45.958Z,16.72
2022-08-05T04:20:41.506Z,16.81
2022-08-05T04:22:05.265Z,16.80
2022-08-05T04:22:35.812Z,16.87
2022-08-05T04:23:57.389Z,17.04
2022-08-05T04:24:34.339Z,17.34
2022-08-05T04:25:38.488Z,17.94
2022-08-05T04:26:32.471Z,18.41
2022-08-05T04:27:19.420Z,18.76
2022-08-05T04:28:20.628Z,18.77
2022-08-05T04:29:18.589Z,18.73
2022-08-05T04:30:07.981Z,18.68
2022-08-05T04:30:55.646Z,18.63
2022-08-05T04:31:43.011Z,18.66
2022-08-05T04:32:31.014Z,18.73
2022-08-05T04:33:20.539Z,18.73
2022-08-05T04:34:33.775Z,18.81
2022-08-05T04:35:22.020Z,18.83
2022-08-05T04:36:16.596Z,18.98
2022-08-05T04:37:17.431Z,18.97
2022-08-05T04:38:06.850Z,19.20
2022-08-05T04:38:55.276Z,19.47
2022-08-05T04:39:43.955Z,19.66
2022-08-05T04:40:44.472Z,19.84
2022-08-05T04:41:38.657Z,19.86
2022-08-05T04:42:25.739Z,20.06
2022-08-05T04:43:16.517Z,20.27
2022-08-05T04:44:09.605Z,20.67
2022-08-05T04:44:56.659Z,21.19
2022-08-05T04:45:48.224Z,21.51
2022-08-05T04:46:35.908Z,21.50
2022-08-05T04:47:22.939Z,21.49
2022-08-05T04:48:13.303Z,21.38
2022-08-05T04:49:14.589Z,21.36
2022-08-05T04:50:11.089Z,21.29
2022-08-05T04:51:02.593Z,21.15
2022-08-05T04:51:50.687Z,20.99
2022-08-05T04:52:47.344Z,21.05
2022-08-05T04:53:38.926Z,21.15
2022-08-05T04:54:28.789Z,21.20
2022-08-05T04:55:15.572Z,21.16
2022-08-05T04:56:14.812Z,21.25
2022-08-05T04:57:10.239Z,21.46
2022-08-05T04:57:57.087Z,22.01
2022-08-05T04:58:43.889Z,22.67
2022-08-05T04:59:39.243Z,23.34
2022-08-05T05:00:27.648Z,24.42
2022-08-05T05:01:33.672Z,25.57
2022-08-05T05:02:36.871Z,25.97
2022-08-05T05:03:28.427Z,25.71
2022-08-05T05:04:28.917Z,25.34
2022-08-05T05:05:16.663Z,24.78
2022-08-05T05:06:39.567Z,24.42
2022-08-05T05:07:29.271Z,24.12
2022-08-05T05:08:29.978Z,24.24
2022-08-05T05:09:18.401Z,24.01
2022-08-05T05:10:06.704Z,23.86
2022-08-05T05:10:56.221Z,23.62
2022-08-05T05:11:54.481Z,23.62
2022-08-05T05:12:43.619Z,23.45
2022-08-05T05:13:32.347Z,23.44
2022-08-05T05:14:32.001Z,23.52
2022-08-05T05:15:57.291Z,23.83
2022-08-05T05:16:30.383Z,24.12
2022-08-05T05:17:22.819Z,24.67
2022-08-05T05:18:15.060Z,24.68
2022-08-05T05:19:19.393Z,24.84
2022-08-05T05:20:11.733Z,25.00
2022-08-05T05:20:58.756Z,25.37
2022-08-05T05:21:46.426Z,25.66
2022-08-05T05:22:33.622Z,25.74
2022-08-05T05:23:20.469Z,25.72
2022-08-05T05:24:09.208Z,25.40
2022-08-05T05:24:59.467Z,25.29
2022-08-05T05:25:46.448Z,25.17
2022-08-05T05:26:34.680Z,24.91
2022-08-05T05:27:22.599Z,24.99
2022-08-05T05:28:11.149Z,24.95
2022-08-05T05:28:57.864Z,25.05
2022-08-05T05:30:03.843Z,25.04
2022-08-05T05:30:51.800Z,24.95
2022-08-05T05:32:24.509Z,25.23
2022-08-05T05:33:17.074Z,25.36
2022-08-05T05:34:03.969Z,25.36
2022-08-05T05:34:52.410Z,25.33
2022-08-05T05:35:42.399Z,25.27
2022-08-05T05:36:30.208Z,25.02
2022-08-05T05:37:17.136Z,24.75
2022-08-05T05:38:05.664Z,24.63
2022-08-05T05:38:57.413Z,24.55
2022-08-05T05:39:44.528Z,24.37
2022-08-05T05:40:32.306Z,24.23
2022-08-05T05:41:20.139Z,24.18
2022-08-05T05:42:07.298Z,23.82
2022-08-05T05:42:54.918Z,23.87
2022-08-05T05:43:58.563Z,23.94
2022-08-05T05:44:47.258Z,23.89
2022-08-05T05:45:33.999Z,23.95
2022-08-05T05:46:20.831Z,24.02
2022-08-05T05:47:13.229Z,24.01
2022-08-05T05:48:08.975Z,24.00
2022-08-05T05:48:55.820Z,23.96
2022-08-05T05:49:42.679Z,23.99
2022-08-05T05:50:29.459Z,24.00
2022-08-05T05:51:23.559Z,24.07
2022-08-05T05:52:25.513Z,24.09
2022-08-05T05:53:20.811Z,24.15
2022-08-05T05:54:08.648Z,24.22
2022-08-05T05:55:07.465Z,24.36
2022-08-05T05:56:03.321Z,24.46
2022-08-05T05:56:50.188Z,24.53
2022-08-05T05:57:52.188Z,24.61
2022-08-05T05:58:40.326Z,24.74
2022-08-05T05:59:28.619Z,24.93
2022-08-05T06:00:20.068Z,25.14
2022-08-05T06:01:12.569Z,25.35
2022-08-05T06:02:00.285Z,25.43
2022-08-05T06:02:47.908Z,25.47
2022-08-05T06:03:53.864Z,25.53
2022-08-05T06:04:41.923Z,25.52
2022-08-05T06:05:29.189Z,25.61
2022-08-05T06:06:18.689Z,25.70
2022-08-05T06:07:09.018Z,25.74
2022-08-05T06:08:01.996Z,25.81
2022-08-05T06:08:49.299Z,25.89
2022-08-05T06:10:00.053Z,25.99
2022-08-05T06:10:52.505Z,26.15
2022-08-05T06:11:39.748Z,26.34
2022-08-05T06:12:27.136Z,26.48
2022-08-05T06:13:14.148Z,26.60
2022-08-05T06:14:01.049Z,26.65
2022-08-05T06:14:49.090Z,26.69
2022-08-05T06:16:30.436Z,26.72
2022-08-05T06:16:45.534Z,26.74
2022-08-05T06:17:33.857Z,26.76
2022-08-05T06:18:40.468Z,26.77
2022-08-05T06:19:34.658Z,26.78
2022-08-05T06:20:22.592Z,26.76
2022-08-05T06:21:18.645Z,26.80
2022-08-05T06:22:07.132Z,26.85
2022-08-05T06:22:56.347Z,26.89
2022-08-05T06:23:45.118Z,26.89
2022-08-05T06:24:32.549Z,26.92
2022-08-05T06:25:25.063Z,26.96
2022-08-05T06:26:26.119Z,27.01
2022-08-05T06:28:10.651Z,27.07
2022-08-05T06:28:28.491Z,27.14
2022-08-05T06:29:42.829Z,27.22
2022-08-05T06:30:22.308Z,27.28
2022-08-05T06:31:17.899Z,27.31
2022-08-05T06:32:05.428Z,27.42
2022-08-05T06:33:10.689Z,27.54
2022-08-05T06:34:06.878Z,27.64
2022-08-05T06:34:57.204Z,27.80
2022-08-05T06:36:07.777Z,28.00
2022-08-05T06:36:57.618Z,28.14
2022-08-05T06:37:57.376Z,28.18
2022-08-05T06:38:46.947Z,28.30
2022-08-05T06:39:34.271Z,28.53
2022-08-05T06:40:21.616Z,28.61
2022-08-05T06:41:14.870Z,28.71
2022-08-05T06:42:04.034Z,28.92
2022-08-05T06:42:52.517Z,29.07
2022-08-05T06:43:59.047Z,29.14
2022-08-05T06:44:46.259Z,29.14
2022-08-05T06:45:44.548Z,29.22
2022-08-05T06:46:42.978Z,29.36
2022-08-05T06:48:36.411Z,29.59
2022-08-05T06:48:56.349Z,29.79
2022-08-05T06:50:00.034Z,29.68
2022-08-05T06:50:49.937Z,29.66
2022-08-05T06:51:36.892Z,29.54
2022-08-05T06:52:37.733Z,29.47
2022-08-05T06:53:28.426Z,29.44
2022-08-05T06:54:18.965Z,29.40
2022-08-05T06:55:07.243Z,29.36
2022-08-05T06:55:54.029Z,29.28
2022-08-05T06:56:40.969Z,29.29
2022-08-05T06:57:57.294Z,29.27
2022-08-05T06:58:48.480Z,29.24
2022-08-05T06:59:38.478Z,29.19
2022-08-05T07:00:26.089Z,29.19
2022-08-05T07:01:16.776Z,29.23
2022-08-05T07:02:08.338Z,29.20
2022-08-05T07:02:55.378Z,29.22
2022-08-05T07:03:42.157Z,29.25
2022-08-05T07:04:28.881Z,29.27
2022-08-05T07:05:18.877Z,29.30
2022-08-05T07:06:14.332Z,29.32
2022-08-05T07:07:02.218Z,29.38
2022-08-05T07:07:49.207Z,29.43
2022-08-05T07:08:35.989Z,29.45
2022-08-05T07:09:24.974Z,29.49
2022-08-05T07:10:14.863Z,29.53
2022-08-05T07:11:04.758Z,29.56
2022-08-05T07:11:52.367Z,29.59
2022-08-05T07:12:57.682Z,29.54
2022-08-05T07:14:03.328Z,29.54
2022-08-05T07:15:09.699Z,29.55
2022-08-05T07:17:57.311Z,29.48
2022-08-05T07:18:00.459Z,29.48
2022-08-05T07:18:30.338Z,29.51
2022-08-05T07:19:44.249Z,29.54
2022-08-05T07:20:38.743Z,29.59
2022-08-05T07:21:26.145Z,29.66
2022-08-05T07:22:12.909Z,29.68
2022-08-05T07:23:02.699Z,29.70
2022-08-05T07:23:52.375Z,29.71
2022-08-05T07:24:43.958Z,29.69
2022-08-05T07:25:55.464Z,29.62
2022-08-05T07:26:44.761Z,29.61
2022-08-05T07:27:56.389Z,29.67
2022-08-05T07:28:39.983Z,29.60
2022-08-05T07:30:22.160Z,29.65
2022-08-05T07:30:38.370Z,29.70
2022-08-05T07:31:54.077Z,29.76
2022-08-05T07:32:37.788Z,29.75
2022-08-05T07:33:36.577Z,29.82
2022-08-05T07:34:28.571Z,29.81
2022-08-05T07:36:02.655Z,29.84
2022-08-05T07:36:22.384Z,29.83
2022-08-05T07:37:11.710Z,29.91
2022-08-05T07:37:58.628Z,29.91
2022-08-05T07:38:46.269Z,29.97
2022-08-05T07:40:04.181Z,30.04
2022-08-05T07:40:44.605Z,30.08
2022-08-05T07:42:08.710Z,30.16
2022-08-05T07:42:38.182Z,30.13
2022-08-05T07:43:25.059Z,30.24
2022-08-05T07:44:19.443Z,30.26
2022-08-05T07:45:09.268Z,30.31
2022-08-05T07:45:57.098Z,30.36
2022-08-05T07:46:48.598Z,30.40
2022-08-05T07:47:42.499Z,30.45
2022-08-05T07:49:02.984Z,30.47
2022-08-05T07:49:43.630Z,30.49
2022-08-05T07:50:41.260Z,30.59
2022-08-05T07:51:36.714Z,30.60
2022-08-05T07:52:27.397Z,30.62
2022-08-05T07:53:14.869Z,30.63
2022-08-05T07:54:02.014Z,30.64
2022-08-05T07:54:49.366Z,30.66
2022-08-05T07:56:05.869Z,30.66
2022-08-05T07:57:13.575Z,30.70
2022-08-05T07:58:02.379Z,30.71
2022-08-05T07:58:57.676Z,30.76
2022-08-05T07:59:46.839Z,30.80
2022-08-05T08:00:35.732Z,30.85
2022-08-05T08:01:25.411Z,30.87
2022-08-05T08:02:17.927Z,30.91
2022-08-05T08:03:14.938Z,30.98
2022-08-05T08:04:03.179Z,30.83
2022-08-05T08:04:50.978Z,30.84
2022-08-05T08:05:49.845Z,30.89
2022-08-05T08:06:36.970Z,30.93
2022-08-05T08:07:24.059Z,30.97
2022-08-05T08:08:12.195Z,30.96
2022-08-05T08:08:59.391Z,30.99
2022-08-05T08:09:48.131Z,31.00
2022-08-05T08:10:34.909Z,31.01
2022-08-05T08:11:27.574Z,31.03
2022-08-05T08:12:48.414Z,31.07
2022-08-05T08:13:42.998Z,31.12
2022-08-05T08:14:36.359Z,31.18
2022-08-05T08:15:37.092Z,31.22
2022-08-05T08:16:35.251Z,31.20
2022-08-05T08:17:36.929Z,31.24
2022-08-05T08:18:24.358Z,31.26
2022-08-05T08:20:10.080Z,31.28
2022-08-05T08:20:43.336Z,31.25
2022-08-05T08:21:25.390Z,31.31
2022-08-05T08:22:16.017Z,31.30
2022-08-05T08:23:03.520Z,31.26
2022-08-05T08:24:02.840Z,31.24
2022-08-05T08:24:52.152Z,31.25
2022-08-05T08:26:00.579Z,31.28
2022-08-05T08:26:46.310Z,31.32
2022-08-05T08:27:40.159Z,31.36
2022-08-05T08:28:36.335Z,31.39
2022-08-05T08:30:03.295Z,31.46
2022-08-05T08:30:40.854Z,31.50
2022-08-05T08:31:34.299Z,31.55
2022-08-05T08:32:27.977Z,31.57
2022-08-05T08:33:15.128Z,31.61
2022-08-05T08:34:01.939Z,31.64
2022-08-05T08:34:49.005Z,31.65
2022-08-05T08:35:41.275Z,31.61
2022-08-05T08:36:38.708Z,31.56
2022-08-05T08:37:30.001Z,31.54
2022-08-05T08:38:35.411Z,31.53
2022-08-05T08:39:24.882Z,31.54
2022-08-05T08:40:13.149Z,31.54
2022-08-05T08:41:00.851Z,31.60
2022-08-05T08:41:51.055Z,31.65
2022-08-05T08:42:51.040Z,31.69
2022-08-05T08:45:19.799Z,31.67
2022-08-05T08:45:20.620Z,31.69
2022-08-05T08:45:56.251Z,31.80
2022-08-05T08:46:44.318Z,31.84
2022-08-05T08:48:06.028Z,31.89
2022-08-05T08:49:04.149Z,31.88
2022-08-05T08:50:13.178Z,31.91
2022-08-05T08:51:22.545Z,31.94
2022-08-05T08:52:13.706Z,31.98
2022-08-05T08:53:07.941Z,32.00
2022-08-05T08:53:55.318Z,31.93
2022-08-05T08:54:43.429Z,31.93
2022-08-05T08:56:02.703Z,31.84
2022-08-05T08:56:47.669Z,31.83
2022-08-05T08:57:42.023Z,31.87
2022-08-05T08:58:43.636Z,31.87
2022-08-05T08:59:36.430Z,31.95
2022-08-05T09:00:23.369Z,31.98
2022-08-05T09:01:17.238Z,31.92
2022-08-05T09:02:08.475Z,31.93
2022-08-05T09:02:56.768Z,31.98
2022-08-05T09:03:53.068Z,32.02
2022-08-05T09:04:58.467Z,32.08
2022-08-05T09:06:09.103Z,32.05
2022-08-05T09:06:56.320Z,32.06
2022-08-05T09:07:57.779Z,32.16
2022-08-05T09:08:44.990Z,32.18
2022-08-05T09:09:35.414Z,32.21
2022-08-05T09:10:26.998Z,32.26
2022-08-05T09:11:15.314Z,32.29
2022-08-05T09:12:19.875Z,32.31
2022-08-05T09:13:07.439Z,32.37
2022-08-05T09:14:09.166Z,32.47
2022-08-05T09:15:06.390Z,32.46
2022-08-05T09:15:53.449Z,32.49
2022-08-05T09:16:41.869Z,32.60
2022-08-05T09:17:42.899Z,32.56
2022-08-05T09:18:32.540Z,32.56
2022-08-05T09:19:19.307Z,32.48
2022-08-05T09:20:36.187Z,32.43
2022-08-05T09:22:23.170Z,32.39
2022-08-05T09:23:05.023Z,32.39
2022-08-05T09:24:10.139Z,32.45
2022-08-05T09:24:58.819Z,32.49
2022-08-05T09:26:00.969Z,32.48
2022-08-05T09:26:52.261Z,32.47
2022-08-05T09:28:03.800Z,32.51
2022-08-05T09:28:48.319Z,32.57
2022-08-05T09:29:47.574Z,32.60
2022-08-05T09:30:35.158Z,32.60
2022-08-05T09:32:40.268Z,32.64
2022-08-05T09:32:41.209Z,32.61
2022-08-05T09:33:35.144Z,32.74
2022-08-05T09:34:22.622Z,32.73
2022-08-05T09:35:26.784Z,32.68
2022-08-05T09:36:16.629Z,32.70
2022-08-05T09:37:17.725Z,32.75
2022-08-05T09:38:27.618Z,32.76
2022-08-05T09:39:21.896Z,32.83
2022-08-05T09:40:10.171Z,32.79
2022-08-05T09:41:10.118Z,32.78
2022-08-05T09:42:04.578Z,32.68
2022-08-05T09:42:51.331Z,32.72
2022-08-05T09:43:42.207Z,32.75
2022-08-05T09:44:38.906Z,32.79
2022-08-05T09:46:06.960Z,32.82
2022-08-05T09:46:51.951Z,32.91
2022-08-05T09:47:55.527Z,33.00
2022-08-05T09:48:43.499Z,33.09
2022-08-05T09:50:01.093Z,33.14
2022-08-05T09:50:50.870Z,33.07
2022-08-05T09:51:39.995Z,33.10
2022-08-05T09:52:31.485Z,33.09
2022-08-05T09:53:26.060Z,33.04
2022-08-05T09:54:32.273Z,33.12
2022-08-05T09:55:56.674Z,33.15
2022-08-05T09:56:27.500Z,33.14
2022-08-05T09:57:39.468Z,33.20
2022-08-05T09:58:29.133Z,33.22
2022-08-05T09:59:17.576Z,33.27
2022-08-05T10:00:08.426Z,33.25
2022-08-05T10:01:15.072Z,33.27
2022-08-05T10:02:10.047Z,33.29
2022-08-05T10:02:58.112Z,33.32
2022-08-05T10:04:10.272Z,33.36
2022-08-05T10:05:04.598Z,33.38
2022-08-05T10:06:15.485Z,33.35
2022-08-05T10:07:06.139Z,33.39
2022-08-05T10:08:36.744Z,33.32
2022-08-05T10:09:16.470Z,33.23
2022-08-05T10:10:15.936Z,33.18
2022-08-05T10:11:07.010Z,33.26
2022-08-05T10:12:18.515Z,33.30
2022-08-05T10:13:45.817Z,33.35
2022-08-05T10:14:35.239Z,33.43
2022-08-05T10:15:35.089Z,33.40
2022-08-05T10:16:37.678Z,33.36
2022-08-05T10:17:37.705Z,33.29
2022-08-05T10:18:27.848Z,33.38
2022-08-05T10:19:16.399Z,33.47
2022-08-05T10:20:18.251Z,33.41
2022-08-05T10:21:08.666Z,33.43
2022-08-05T10:22:02.260Z,33.44
2022-08-05T10:22:51.137Z,33.48
2022-08-05T10:23:59.052Z,33.55
2022-08-05T10:24:46.426Z,33.57
2022-08-05T10:25:37.619Z,33.51
2022-08-05T10:26:32.629Z,33.53
2022-08-05T10:27:26.247Z,33.58
2022-08-05T10:28:29.459Z,33.60
2022-08-05T10:29:23.626Z,33.64
2022-08-05T10:31:20.052Z,33.63
2022-08-05T10:32:52.206Z,33.61
2022-08-05T10:33:01.486Z,33.56
2022-08-05T10:33:43.392Z,33.75
2022-08-05T10:34:31.390Z,33.67
2022-08-05T10:35:18.241Z,33.67
2022-08-05T10:36:06.231Z,33.76
2022-08-05T10:36:53.087Z,33.77
2022-08-05T10:37:44.929Z,33.76
2022-08-05T10:38:33.988Z,33.83
2022-08-05T10:40:03.469Z,33.90
2022-08-05T10:40:45.169Z,33.93
2022-08-05T10:41:44.827Z,33.96
2022-08-05T10:42:38.818Z,33.93
2022-08-05T10:43:48.619Z,33.90
2022-08-05T10:44:36.112Z,33.89
2022-08-05T10:45:39.725Z,33.88
2022-08-05T10:46:50.561Z,33.91
2022-08-05T10:47:56.157Z,34.00
2022-08-05T10:49:09.624Z,33.98
2022-08-05T10:50:31.961Z,34.04
2022-08-05T10:51:22.436Z,33.95
2022-08-05T10:52:10.234Z,34.02
2022-08-05T10:52:58.460Z,34.16
2022-08-05T10:53:51.679Z,34.11
2022-08-05T10:54:56.067Z,34.08
2022-08-05T10:56:05.131Z,34.11
2022-08-05T10:57:12.778Z,34.18
2022-08-05T10:58:09.636Z,34.17
2022-08-05T10:58:58.458Z,34.21
2022-08-05T11:00:19.821Z,34.15
2022-08-05T11:01:08.328Z,34.09
2022-08-05T11:02:14.111Z,34.10
2022-08-05T11:03:25.349Z,34.22
2022-08-05T11:04:18.519Z,34.31
2022-08-05T11:05:11.151Z,34.35
2022-08-05T11:06:04.830Z,34.32
2022-08-05T11:07:01.582Z,34.32
2022-08-05T11:08:01.160Z,34.27
2022-08-05T11:09:13.193Z,34.25
2022-08-05T11:10:09.956Z,34.30
2022-08-05T11:11:33.038Z,34.28
2022-08-05T11:12:34.733Z,34.30
2022-08-05T11:13:40.807Z,34.37
2022-08-05T11:15:01.293Z,34.35
2022-08-05T11:16:33.742Z,34.40
2022-08-05T11:17:56.777Z,34.47
2022-08-05T11:18:34.610Z,34.49
2022-08-05T11:20:16.652Z,34.47
2022-08-05T11:20:41.699Z,34.43
2022-08-05T11:21:49.007Z,34.32
2022-08-05T11:22:54.014Z,34.35
2022-08-05T11:24:04.649Z,34.46
2022-08-05T11:26:05.630Z,34.54
2022-08-05T11:26:43.518Z,34.50
2022-08-05T11:27:50.804Z,34.53
2022-08-05T11:28:39.999Z,34.52
2022-08-05T11:29:47.198Z,34.57
2022-08-05T11:31:06.544Z,34.61
2022-08-05T11:32:29.318Z,34.62
2022-08-05T11:33:34.555Z,34.74
2022-08-05T11:34:54.411Z,34.75
2022-08-05T11:36:04.461Z,34.82
2022-08-05T11:36:55.698Z,34.86
2022-08-05T11:38:30.407Z,34.86
2022-08-05T11:39:08.438Z,34.80
2022-08-05T11:40:02.981Z,34.72
2022-08-05T11:41:03.537Z,34.75
2022-08-05T11:42:04.546Z,34.70
2022-08-05T11:42:51.690Z,34.73
2022-08-05T11:44:04.950Z,34.78
2022-08-05T11:44:53.840Z,34.83
2022-08-05T11:46:29.889Z,34.87
2022-08-05T11:47:09.925Z,34.91
2022-08-05T11:47:59.009Z,34.89
2022-08-05T11:48:45.747Z,34.95
2022-08-05T11:49:33.969Z,34.97
2022-08-05T11:50:21.130Z,34.95
2022-08-05T11:51:08.495Z,34.90
2022-08-05T11:51:57.926Z,34.94
2022-08-05T11:52:48.890Z,35.00
2022-08-05T11:53:41.020Z,35.06
2022-08-05T11:54:34.970Z,35.06
2022-08-05T11:55:21.859Z,34.96
2022-08-05T11:56:19.369Z,34.95
2022-08-05T11:58:08.237Z,34.95
2022-08-05T11:58:40.249Z,35.06
2022-08-05T11:59:28.988Z,35.16